createdAt,value
2023-01-12T00:02:28.281Z,100230.94
2023-01-12T00:07:28.904Z,100227.75
2023-01-12T00:12:27.627Z,100222.88
2023-01-12T00:17:26.450Z,100209.16
2023-01-12T00:22:25.240Z,100221.63
2023-01-12T00:27:24.064Z,100224.53
2023-01-12T00:32:22.843Z,100216.41
2023-01-12T00:37:21.626Z,100200.94
2023-01-12T00:42:38.966Z,100195.09
2023-01-12T00:47:37.934Z,100192.94
2023-01-12T00:52:36.801Z,100184.94
2023-01-12T00:57:35.985Z,100188.28
2023-01-12T01:02:34.887Z,100178.31
2023-01-12T01:07:35.082Z,100177.34
2023-01-12T01:12:34.232Z,100182.41
2023-01-12T01:17:33.412Z,100191.63
2023-01-12T01:22:32.221Z,100196.19
2023-01-12T01:27:31.051Z,100185.47
2023-01-12T01:32:29.799Z,100174.25
2023-01-12T01:37:28.717Z,100179.56
2023-01-12T01:42:30.315Z,100175.78
2023-01-12T01:47:34.879Z,100188.09
2023-01-12T01:52:38.433Z,100187.22
2023-01-12T01:57:52.660Z,100184.38
2023-01-12T02:02:52.676Z,100181.97
2023-01-12T02:07:52.766Z,100191.69
2023-01-12T02:13:27.036Z,100207.06
2023-01-12T02:19:01.885Z,100214.19
2023-01-12T02:24:00.575Z,100219.16
2023-01-12T02:29:37.054Z,100203.00
2023-01-12T02:35:09.730Z,100204.84
2023-01-12T02:40:29.880Z,100205.47
2023-01-12T02:45:31.696Z,100192.38
2023-01-12T02:50:52.663Z,100186.66
2023-01-12T02:55:53.195Z,100185.88
2023-01-12T03:00:55.400Z,100176.22
2023-01-12T03:06:00.795Z,100170.13
2023-01-12T03:11:12.227Z,100181.22
2023-01-12T03:16:13.704Z,100183.53
2023-01-12T03:21:21.524Z,100184.66
2023-01-12T03:26:25.489Z,100176.38
2023-01-12T03:31:24.846Z,100166.63
2023-01-12T03:36:23.560Z,100172.25
2023-01-12T03:41:36.624Z,100163.88
2023-01-12T03:46:43.601Z,100160.34
2023-01-12T03:51:47.434Z,100155.56
2023-01-12T03:56:47.595Z,100155.09
2023-01-12T04:01:48.935Z,100145.72
2023-01-12T04:06:47.807Z,100139.31
2023-01-12T04:12:05.035Z,100142.34
2023-01-12T04:17:03.856Z,100125.78
2023-01-12T04:22:21.473Z,100118.88
2023-01-12T04:27:20.439Z,100114.75
2023-01-12T04:32:19.452Z,100110.16
2023-01-12T04:37:18.807Z,100108.44
2023-01-12T04:42:36.192Z,100116.75
2023-01-12T04:47:35.055Z,100102.25
2023-01-12T04:52:34.989Z,100099.91
2023-01-12T04:57:33.871Z,100093.22
2023-01-12T05:02:32.630Z,100097.56
2023-01-12T05:07:31.636Z,100084.88
2023-01-12T05:12:30.404Z,100077.09
2023-01-12T05:17:29.401Z,100073.66
2023-01-12T05:22:28.395Z,100065.41
2023-01-12T05:27:27.175Z,100058.16
2023-01-12T05:32:26.912Z,100053.81
2023-01-12T05:37:25.957Z,100051.63
2023-01-12T05:42:43.588Z,100058.34
2023-01-12T05:47:42.309Z,100045.69
2023-01-12T05:52:41.099Z,100046.28
2023-01-12T05:57:39.806Z,100040.66
2023-01-12T06:02:38.636Z,100045.25
2023-01-12T06:07:37.696Z,100049.88
2023-01-12T06:12:54.940Z,100047.44
2023-01-12T06:17:53.690Z,100053.88
2023-01-12T06:22:52.476Z,100061.03
2023-01-12T06:27:51.211Z,100048.25
2023-01-12T06:32:50.402Z,100051.06
2023-01-12T06:37:49.127Z,100043.97
2023-01-12T06:42:47.827Z,100051.97
2023-01-12T06:47:52.181Z,100054.06
2023-01-12T06:52:51.109Z,100060.53
2023-01-12T06:57:49.833Z,100058.38
2023-01-12T07:02:52.579Z,100054.31
2023-01-12T07:07:58.288Z,100058.44
2023-01-12T07:13:00.353Z,100074.59
2023-01-12T07:17:59.278Z,100075.56
2023-01-12T07:22:58.022Z,100062.34
2023-01-12T07:27:58.369Z,100057.84
2023-01-12T07:33:07.095Z,100064.44
2023-01-12T07:38:06.373Z,100066.16
2023-01-12T07:43:07.706Z,100067.19
2023-01-12T07:48:08.358Z,100062.47
2023-01-12T07:53:07.088Z,100063.97
2023-01-12T07:58:08.830Z,100059.03
2023-01-12T08:03:10.398Z,100059.22
2023-01-12T08:08:09.364Z,100057.72
2023-01-12T08:13:08.169Z,100055.31
2023-01-12T08:18:16.297Z,100035.69
2023-01-12T08:23:30.457Z,100037.88
2023-01-12T08:28:34.835Z,100029.06
2023-01-12T08:33:33.613Z,100023.19
2023-01-12T08:38:32.401Z,100022.34
2023-01-12T08:43:49.715Z,100013.53
2023-01-12T08:48:48.419Z,99999.81
2023-01-12T08:53:47.726Z,99992.72
2023-01-12T08:58:46.575Z,100012.97
2023-01-12T09:03:46.220Z,100004.03
2023-01-12T09:08:45.973Z,100009.81
2023-01-12T09:13:45.060Z,100000.81
2023-01-12T09:18:44.182Z,99995.38
2023-01-12T09:23:44.117Z,99988.09
2023-01-12T09:28:46.055Z,99982.69
2023-01-12T09:33:45.400Z,99973.19
2023-01-12T09:38:45.443Z,99960.72
2023-01-12T09:44:03.243Z,99952.59
2023-01-12T09:49:02.912Z,99942.56
2023-01-12T09:54:02.737Z,99928.66
2023-01-12T09:59:11.109Z,99915.66
2023-01-12T10:04:10.156Z,99927.72
2023-01-12T10:09:27.082Z,99924.59
2023-01-12T10:14:31.628Z,99934.09
2023-01-12T10:19:42.300Z,99920.94
2023-01-12T10:24:42.257Z,99916.91
2023-01-12T10:29:41.965Z,99910.44
2023-01-12T10:34:51.550Z,99904.94
2023-01-12T10:39:51.884Z,99884.78
2023-01-12T10:45:23.493Z,99882.66
2023-01-12T10:50:24.205Z,99883.66
2023-01-12T10:55:28.691Z,99860.16
2023-01-12T11:00:29.778Z,99849.53
2023-01-12T11:05:30.241Z,99837.50
2023-01-12T11:10:36.638Z,99824.19
2023-01-12T11:15:39.322Z,99823.81
2023-01-12T11:20:44.117Z,99809.72
2023-01-12T11:25:46.946Z,99797.66
2023-01-12T11:31:06.231Z,99803.00
2023-01-12T11:36:14.565Z,99797.16
2023-01-12T11:41:21.702Z,99791.81
2023-01-12T11:46:29.181Z,99788.41
2023-01-12T11:51:28.438Z,99798.72
2023-01-12T11:57:08.473Z,99771.91
2023-01-12T12:02:22.638Z,99751.25
2023-01-12T12:07:56.568Z,99750.09
2023-01-12T12:13:13.685Z,99749.06
2023-01-12T12:18:44.240Z,99750.69
2023-01-12T12:23:55.166Z,99753.41
2023-01-12T12:29:20.489Z,99766.25
2023-01-12T12:34:44.523Z,99764.06
2023-01-12T12:39:57.253Z,99763.69
2023-01-12T12:45:17.959Z,99766.00
2023-01-12T12:50:22.414Z,99757.94
2023-01-12T12:55:21.412Z,99764.69
2023-01-12T13:00:33.173Z,99747.91
2023-01-12T13:05:48.894Z,99748.72
2023-01-12T13:10:48.656Z,99735.91
2023-01-12T13:15:50.168Z,99719.38
2023-01-12T13:20:53.702Z,99730.59
2023-01-12T13:25:57.337Z,99728.38
2023-01-12T13:31:00.405Z,99714.31
2023-01-12T13:36:05.853Z,99705.16
2023-01-12T13:41:13.883Z,99705.63
2023-01-12T13:46:22.309Z,99718.91
2023-01-12T13:51:37.090Z,99720.13
2023-01-12T13:56:35.952Z,99732.97
2023-01-12T14:01:41.472Z,99720.75
2023-01-12T14:06:58.859Z,99723.78
2023-01-12T14:12:00.314Z,99731.97
2023-01-12T14:17:17.822Z,99743.19
2023-01-12T14:22:19.330Z,99726.50
2023-01-12T14:27:27.477Z,99728.38
2023-01-12T14:32:27.236Z,99730.00
2023-01-12T14:37:32.685Z,99725.09
2023-01-12T14:42:50.888Z,99720.69
2023-01-12T14:47:49.836Z,99728.13
2023-01-12T14:52:49.150Z,99726.50
2023-01-12T14:57:51.777Z,99724.75
2023-01-12T15:02:53.205Z,99720.38
2023-01-12T15:08:08.859Z,99722.78
2023-01-12T15:13:30.059Z,99725.91
2023-01-12T15:18:47.583Z,99719.22
2023-01-12T15:24:05.896Z,99724.13
2023-01-12T15:29:05.192Z,99721.09
2023-01-12T15:34:05.811Z,99727.97
2023-01-12T15:39:04.670Z,99719.53
2023-01-12T15:44:05.224Z,99719.53
2023-01-12T15:49:04.021Z,99727.31
2023-01-12T15:54:04.070Z,99728.19
2023-01-12T15:59:02.870Z,99733.56
2023-01-12T16:04:35.982Z,99728.75
2023-01-12T16:09:20.513Z,99725.91
2023-01-12T16:14:19.347Z,99721.47
2023-01-12T16:19:22.508Z,99723.44
2023-01-12T16:24:22.064Z,99710.81
2023-01-12T16:29:23.620Z,99717.00
2023-01-12T16:34:23.593Z,99699.13
2023-01-12T16:39:24.722Z,99712.75
2023-01-12T16:44:24.031Z,99705.34
2023-01-12T16:49:23.451Z,99703.56
2023-01-12T16:54:22.574Z,99705.56
2023-01-12T16:59:22.871Z,99695.53
2023-01-12T17:04:21.670Z,99696.72
2023-01-12T17:09:21.033Z,99687.19
2023-01-12T17:14:23.026Z,99682.88
2023-01-12T17:19:25.114Z,99682.88
2023-01-12T17:24:25.085Z,99669.59
2023-01-12T17:29:28.239Z,99675.50
2023-01-12T17:34:29.746Z,99666.56
2023-01-12T17:39:28.712Z,99666.00
2023-01-12T17:44:27.612Z,99672.22
2023-01-12T17:49:26.380Z,99663.81
2023-01-12T17:54:25.167Z,99659.13
2023-01-12T17:59:24.721Z,99656.28
2023-01-12T18:04:23.991Z,99658.22
2023-01-12T18:09:23.259Z,99651.34
2023-01-12T18:14:24.452Z,99652.09
2023-01-12T18:19:23.254Z,99660.06
2023-01-12T18:24:22.338Z,99638.88
2023-01-12T18:29:21.272Z,99646.31
2023-01-12T18:34:20.063Z,99646.84
2023-01-12T18:39:20.277Z,99647.59
2023-01-12T18:44:19.043Z,99653.63
2023-01-12T18:49:22.458Z,99644.97
2023-01-12T18:54:21.178Z,99653.53
2023-01-12T18:59:19.946Z,99641.47
2023-01-12T19:04:29.265Z,99647.50
2023-01-12T19:09:38.286Z,99647.69
2023-01-12T19:14:56.049Z,99632.59
2023-01-12T19:19:56.478Z,99642.41
2023-01-12T19:25:13.707Z,99634.28
2023-01-12T19:30:12.998Z,99630.56
2023-01-12T19:35:12.275Z,99635.22
2023-01-12T19:40:30.769Z,99633.16
2023-01-12T19:45:29.618Z,99639.88
2023-01-12T19:50:28.307Z,99630.88
2023-01-12T19:55:27.107Z,99625.75
2023-01-12T20:00:27.248Z,99636.78
2023-01-12T20:05:26.102Z,99629.38
2023-01-12T20:10:24.953Z,99639.00
2023-01-12T20:15:23.807Z,99629.97
2023-01-12T20:20:23.705Z,99627.16
2023-01-12T20:25:23.305Z,99624.59
2023-01-12T20:30:36.901Z,99629.97
2023-01-12T20:35:44.651Z,99628.81
2023-01-12T20:40:45.415Z,99630.13
2023-01-12T20:45:44.504Z,99621.31
2023-01-12T20:50:46.920Z,99611.59
2023-01-12T20:55:49.264Z,99604.81
2023-01-12T21:00:49.894Z,99610.63
2023-01-12T21:05:48.892Z,99613.88
2023-01-12T21:10:50.767Z,99610.03
2023-01-12T21:15:57.461Z,99602.66
2023-01-12T21:20:56.660Z,99589.47
2023-01-12T21:25:55.682Z,99584.63
2023-01-12T21:30:54.512Z,99595.78
2023-01-12T21:35:59.991Z,99582.16
2023-01-12T21:41:03.820Z,99569.25
2023-01-12T21:46:09.012Z,99570.84
2023-01-12T21:51:11.508Z,99569.53
2023-01-12T21:56:12.645Z,99556.56
2023-01-12T22:01:14.471Z,99558.47
2023-01-12T22:06:13.684Z,99560.63
2023-01-12T22:11:15.324Z,99556.22
2023-01-12T22:16:15.627Z,99544.59
2023-01-12T22:21:16.442Z,99550.25
2023-01-12T22:26:17.291Z,99551.16
2023-01-12T22:31:22.164Z,99534.84
2023-01-12T22:36:21.373Z,99549.00
2023-01-12T22:41:22.319Z,99553.84
2023-01-12T22:46:26.072Z,99553.97
2023-01-12T22:51:26.526Z,99557.84
2023-01-12T22:56:25.604Z,99549.94
2023-01-12T23:01:25.591Z,99555.94
2023-01-12T23:06:27.759Z,99536.59
2023-01-12T23:11:26.914Z,99529.88
2023-01-12T23:16:26.791Z,99531.50
2023-01-12T23:21:27.569Z,99524.53
2023-01-12T23:26:29.270Z,99522.91
2023-01-12T23:31:30.583Z,99520.22
2023-01-12T23:36:30.585Z,99512.66
2023-01-12T23:41:31.372Z,99505.00
2023-01-12T23:46:33.795Z,99502.03
2023-01-12T23:51:32.879Z,99490.69
2023-01-12T23:56:33.660Z,99493.38
